sensor_id;sensor_type;location;lat;lon;timestamp;P1;durP1;ratioP1;P2;durP2;ratioP2
10653;SDS011;5375;51.250;6.776;2023-09-07T00:01:44;3.20;;;2.70;;
10653;SDS011;5375;51.250;6.776;2023-09-07T00:04:10;4.15;;;3.15;;
10653;SDS011;5375;51.250;6.776;2023-09-07T00:06:37;4.70;;;2.95;;
10653;SDS011;5375;51.250;6.776;2023-09-07T00:09:03;4.70;;;3.10;;
10653;SDS011;5375;51.250;6.776;2023-09-07T00:11:31;3.67;;;3.20;;
10653;SDS011;5375;51.250;6.776;2023-09-07T00:13:57;3.42;;;2.92;;
10653;SDS011;5375;51.250;6.776;2023-09-07T00:16:24;3.47;;;3.17;;
10653;SDS011;5375;51.250;6.776;2023-09-07T00:18:50;4.03;;;3.20;;
10653;SDS011;5375;51.250;6.776;2023-09-07T00:21:16;3.10;;;2.75;;
10653;SDS011;5375;51.250;6.776;2023-09-07T00:23:42;4.30;;;3.20;;
10653;SDS011;5375;51.250;6.776;2023-09-07T00:26:08;4.22;;;3.50;;
10653;SDS011;5375;51.250;6.776;2023-09-07T00:28:35;3.92;;;3.17;;
10653;SDS011;5375;51.250;6.776;2023-09-07T00:31:01;5.00;;;2.97;;
10653;SDS011;5375;51.250;6.776;2023-09-07T00:33:27;3.33;;;3.03;;
10653;SDS011;5375;51.250;6.776;2023-09-07T00:35:53;4.65;;;2.67;;
10653;SDS011;5375;51.250;6.776;2023-09-07T00:38:19;3.30;;;3.00;;
10653;SDS011;5375;51.250;6.776;2023-09-07T00:40:45;4.50;;;3.10;;
10653;SDS011;5375;51.250;6.776;2023-09-07T00:43:11;4.85;;;3.22;;
10653;SDS011;5375;51.250;6.776;2023-09-07T00:45:38;3.75;;;3.08;;
10653;SDS011;5375;51.250;6.776;2023-09-07T00:48:04;4.18;;;3.10;;
10653;SDS011;5375;51.250;6.776;2023-09-07T00:50:31;3.83;;;3.08;;
10653;SDS011;5375;51.250;6.776;2023-09-07T00:52:57;3.50;;;2.97;;
10653;SDS011;5375;51.250;6.776;2023-09-07T00:55:25;4.07;;;3.03;;
10653;SDS011;5375;51.250;6.776;2023-09-07T00:57:51;4.35;;;3.38;;
10653;SDS011;5375;51.250;6.776;2023-09-07T01:00:17;4.63;;;2.92;;
10653;SDS011;5375;51.250;6.776;2023-09-07T01:02:43;4.55;;;3.15;;
10653;SDS011;5375;51.250;6.776;2023-09-07T01:05:10;4.07;;;3.15;;
10653;SDS011;5375;51.250;6.776;2023-09-07T01:07:50;4.47;;;3.28;;
10653;SDS011;5375;51.250;6.776;2023-09-07T01:10:16;4.43;;;3.10;;
10653;SDS011;5375;51.250;6.776;2023-09-07T01:12:43;3.40;;;2.88;;
10653;SDS011;5375;51.250;6.776;2023-09-07T01:15:09;4.55;;;3.25;;
10653;SDS011;5375;51.250;6.776;2023-09-07T01:17:35;3.75;;;3.03;;
10653;SDS011;5375;51.250;6.776;2023-09-07T01:20:03;3.65;;;3.28;;
10653;SDS011;5375;51.250;6.776;2023-09-07T01:22:36;4.35;;;3.42;;
10653;SDS011;5375;51.250;6.776;2023-09-07T01:25:03;4.07;;;3.05;;
10653;SDS011;5375;51.250;6.776;2023-09-07T01:27:30;3.33;;;3.03;;
10653;SDS011;5375;51.250;6.776;2023-09-07T01:29:57;5.47;;;3.45;;
10653;SDS011;5375;51.250;6.776;2023-09-07T01:32:23;6.20;;;3.53;;
10653;SDS011;5375;51.250;6.776;2023-09-07T01:34:49;3.78;;;3.00;;
10653;SDS011;5375;51.250;6.776;2023-09-07T01:37:15;4.45;;;3.03;;
10653;SDS011;5375;51.250;6.776;2023-09-07T01:39:41;4.07;;;3.25;;
10653;SDS011;5375;51.250;6.776;2023-09-07T01:42:07;3.20;;;2.85;;
10653;SDS011;5375;51.250;6.776;2023-09-07T01:44:33;3.03;;;2.72;;
10653;SDS011;5375;51.250;6.776;2023-09-07T01:47:01;5.20;;;3.28;;
10653;SDS011;5375;51.250;6.776;2023-09-07T01:49:27;4.47;;;3.50;;
10653;SDS011;5375;51.250;6.776;2023-09-07T01:51:53;4.95;;;3.00;;
10653;SDS011;5375;51.250;6.776;2023-09-07T01:54:19;5.57;;;3.28;;
10653;SDS011;5375;51.250;6.776;2023-09-07T01:56:46;3.95;;;3.15;;
10653;SDS011;5375;51.250;6.776;2023-09-07T01:59:12;4.07;;;2.78;;
10653;SDS011;5375;51.250;6.776;2023-09-07T02:01:38;4.47;;;3.10;;
10653;SDS011;5375;51.250;6.776;2023-09-07T02:04:05;8.65;;;3.33;;
10653;SDS011;5375;51.250;6.776;2023-09-07T02:06:31;4.20;;;3.15;;
10653;SDS011;5375;51.250;6.776;2023-09-07T02:08:57;5.63;;;3.15;;
10653;SDS011;5375;51.250;6.776;2023-09-07T02:11:23;3.55;;;2.80;;
10653;SDS011;5375;51.250;6.776;2023-09-07T02:13:49;3.50;;;2.90;;
10653;SDS011;5375;51.250;6.776;2023-09-07T02:16:15;3.63;;;2.90;;
10653;SDS011;5375;51.250;6.776;2023-09-07T02:18:43;4.25;;;3.05;;
10653;SDS011;5375;51.250;6.776;2023-09-07T02:21:11;3.75;;;2.70;;
10653;SDS011;5375;51.250;6.776;2023-09-07T02:23:37;4.68;;;2.97;;
10653;SDS011;5375;51.250;6.776;2023-09-07T02:26:04;5.72;;;3.25;;
10653;SDS011;5375;51.250;6.776;2023-09-07T02:28:30;3.33;;;2.67;;
10653;SDS011;5375;51.250;6.776;2023-09-07T02:31:05;4.50;;;3.13;;
10653;SDS011;5375;51.250;6.776;2023-09-07T02:33:32;4.45;;;3.17;;
10653;SDS011;5375;51.250;6.776;2023-09-07T02:35:58;4.07;;;3.38;;
10653;SDS011;5375;51.250;6.776;2023-09-07T02:38:24;3.90;;;2.92;;
10653;SDS011;5375;51.250;6.776;2023-09-07T02:40:50;4.45;;;3.30;;
10653;SDS011;5375;51.250;6.776;2023-09-07T02:43:16;3.83;;;3.00;;
10653;SDS011;5375;51.250;6.776;2023-09-07T02:45:42;3.03;;;2.72;;
10653;SDS011;5375;51.250;6.776;2023-09-07T02:48:08;3.85;;;3.25;;
10653;SDS011;5375;51.250;6.776;2023-09-07T02:50:34;3.53;;;2.85;;
10653;SDS011;5375;51.250;6.776;2023-09-07T02:53:01;3.50;;;2.63;;
10653;SDS011;5375;51.250;6.776;2023-09-07T02:55:29;3.47;;;2.95;;
10653;SDS011;5375;51.250;6.776;2023-09-07T02:57:57;3.40;;;2.83;;
10653;SDS011;5375;51.250;6.776;2023-09-07T03:00:24;3.17;;;2.85;;
10653;SDS011;5375;51.250;6.776;2023-09-07T03:02:51;7.18;;;3.00;;
10653;SDS011;5375;51.250;6.776;2023-09-07T03:05:17;6.40;;;3.30;;
10653;SDS011;5375;51.250;6.776;2023-09-07T03:07:44;4.45;;;3.10;;
10653;SDS011;5375;51.250;6.776;2023-09-07T03:10:10;4.68;;;3.15;;
10653;SDS011;5375;51.250;6.776;2023-09-07T03:12:36;3.92;;;3.00;;
10653;SDS011;5375;51.250;6.776;2023-09-07T03:15:03;3.25;;;2.95;;
10653;SDS011;5375;51.250;6.776;2023-09-07T03:17:29;4.88;;;3.00;;
10653;SDS011;5375;51.250;6.776;2023-09-07T03:19:55;5.55;;;3.38;;
10653;SDS011;5375;51.250;6.776;2023-09-07T03:22:24;5.38;;;3.03;;
10653;SDS011;5375;51.250;6.776;2023-09-07T03:24:51;4.93;;;3.25;;
10653;SDS011;5375;51.250;6.776;2023-09-07T03:27:17;5.75;;;3.20;;
10653;SDS011;5375;51.250;6.776;2023-09-07T03:29:46;4.72;;;3.20;;
10653;SDS011;5375;51.250;6.776;2023-09-07T03:32:12;5.38;;;3.30;;
10653;SDS011;5375;51.250;6.776;2023-09-07T03:34:38;5.13;;;2.72;;
10653;SDS011;5375;51.250;6.776;2023-09-07T03:37:04;5.03;;;3.33;;
10653;SDS011;5375;51.250;6.776;2023-09-07T03:39:31;5.75;;;3.03;;
10653;SDS011;5375;51.250;6.776;2023-09-07T03:41:57;4.43;;;3.40;;
10653;SDS011;5375;51.250;6.776;2023-09-07T03:44:23;5.97;;;3.50;;
10653;SDS011;5375;51.250;6.776;2023-09-07T03:46:49;4.57;;;3.10;;
10653;SDS011;5375;51.250;6.776;2023-09-07T03:49:15;4.20;;;2.90;;
10653;SDS011;5375;51.250;6.776;2023-09-07T03:51:41;4.88;;;3.50;;
10653;SDS011;5375;51.250;6.776;2023-09-07T03:54:07;4.55;;;3.50;;
10653;SDS011;5375;51.250;6.776;2023-09-07T03:56:33;7.40;;;3.58;;
10653;SDS011;5375;51.250;6.776;2023-09-07T03:58:59;4.03;;;3.05;;
10653;SDS011;5375;51.250;6.776;2023-09-07T04:01:25;3.50;;;3.20;;
10653;SDS011;5375;51.250;6.776;2023-09-07T04:03:51;3.88;;;3.15;;
10653;SDS011;5375;51.250;6.776;2023-09-07T04:06:17;4.72;;;3.53;;
10653;SDS011;5375;51.250;6.776;2023-09-07T04:08:44;4.97;;;3.35;;
10653;SDS011;5375;51.250;6.776;2023-09-07T04:11:10;6.13;;;3.35;;
10653;SDS011;5375;51.250;6.776;2023-09-07T04:13:36;5.13;;;3.38;;
10653;SDS011;5375;51.250;6.776;2023-09-07T04:16:02;5.10;;;3.78;;
10653;SDS011;5375;51.250;6.776;2023-09-07T04:18:28;5.38;;;3.25;;
10653;SDS011;5375;51.250;6.776;2023-09-07T04:21:03;7.88;;;3.42;;
10653;SDS011;5375;51.250;6.776;2023-09-07T04:23:29;5.05;;;3.45;;
10653;SDS011;5375;51.250;6.776;2023-09-07T04:26:03;5.95;;;3.95;;
10653;SDS011;5375;51.250;6.776;2023-09-07T04:28:29;8.95;;;3.50;;
10653;SDS011;5375;51.250;6.776;2023-09-07T04:30:55;8.48;;;3.60;;
10653;SDS011;5375;51.250;6.776;2023-09-07T04:33:21;5.65;;;3.85;;
10653;SDS011;5375;51.250;6.776;2023-09-07T04:35:47;5.82;;;3.67;;
10653;SDS011;5375;51.250;6.776;2023-09-07T04:38:13;4.45;;;3.50;;
10653;SDS011;5375;51.250;6.776;2023-09-07T04:40:39;5.20;;;3.55;;
10653;SDS011;5375;51.250;6.776;2023-09-07T04:43:05;5.53;;;3.88;;
10653;SDS011;5375;51.250;6.776;2023-09-07T04:45:31;5.25;;;3.78;;
10653;SDS011;5375;51.250;6.776;2023-09-07T04:47:57;7.07;;;4.32;;
10653;SDS011;5375;51.250;6.776;2023-09-07T04:50:23;5.00;;;3.97;;
10653;SDS011;5375;51.250;6.776;2023-09-07T04:52:49;6.30;;;4.22;;
10653;SDS011;5375;51.250;6.776;2023-09-07T04:55:15;6.82;;;3.83;;
10653;SDS011;5375;51.250;6.776;2023-09-07T04:57:41;4.55;;;3.90;;
10653;SDS011;5375;51.250;6.776;2023-09-07T05:00:07;4.68;;;4.10;;
10653;SDS011;5375;51.250;6.776;2023-09-07T05:02:34;6.13;;;4.07;;
10653;SDS011;5375;51.250;6.776;2023-09-07T05:05:07;6.00;;;4.20;;
10653;SDS011;5375;51.250;6.776;2023-09-07T05:07:33;6.30;;;4.00;;
10653;SDS011;5375;51.250;6.776;2023-09-07T05:09:59;7.15;;;4.25;;
10653;SDS011;5375;51.250;6.776;2023-09-07T05:12:25;6.20;;;4.13;;
10653;SDS011;5375;51.250;6.776;2023-09-07T05:14:51;5.03;;;3.47;;
10653;SDS011;5375;51.250;6.776;2023-09-07T05:17:17;6.50;;;3.83;;
10653;SDS011;5375;51.250;6.776;2023-09-07T05:19:43;4.70;;;3.80;;
10653;SDS011;5375;51.250;6.776;2023-09-07T05:22:09;9.43;;;3.90;;
10653;SDS011;5375;51.250;6.776;2023-09-07T05:24:37;5.95;;;4.00;;
10653;SDS011;5375;51.250;6.776;2023-09-07T05:27:04;5.97;;;4.22;;
10653;SDS011;5375;51.250;6.776;2023-09-07T05:29:30;7.07;;;4.03;;
10653;SDS011;5375;51.250;6.776;2023-09-07T05:31:56;6.15;;;3.97;;
10653;SDS011;5375;51.250;6.776;2023-09-07T05:34:22;6.88;;;3.95;;
10653;SDS011;5375;51.250;6.776;2023-09-07T05:36:48;6.68;;;3.83;;
10653;SDS011;5375;51.250;6.776;2023-09-07T05:39:14;6.13;;;4.20;;
10653;SDS011;5375;51.250;6.776;2023-09-07T05:41:40;5.68;;;4.00;;
10653;SDS011;5375;51.250;6.776;2023-09-07T05:44:06;6.65;;;3.90;;
10653;SDS011;5375;51.250;6.776;2023-09-07T05:46:32;7.53;;;3.88;;
10653;SDS011;5375;51.250;6.776;2023-09-07T05:48:58;5.82;;;3.80;;
10653;SDS011;5375;51.250;6.776;2023-09-07T05:51:24;6.22;;;3.92;;
10653;SDS011;5375;51.250;6.776;2023-09-07T05:53:50;5.63;;;4.35;;
10653;SDS011;5375;51.250;6.776;2023-09-07T05:56:16;5.00;;;4.03;;
10653;SDS011;5375;51.250;6.776;2023-09-07T05:58:42;5.25;;;4.05;;
10653;SDS011;5375;51.250;6.776;2023-09-07T06:01:08;6.10;;;3.83;;
10653;SDS011;5375;51.250;6.776;2023-09-07T06:03:34;5.68;;;4.20;;
10653;SDS011;5375;51.250;6.776;2023-09-07T06:06:00;5.63;;;3.90;;
10653;SDS011;5375;51.250;6.776;2023-09-07T06:08:27;6.97;;;3.97;;
10653;SDS011;5375;51.250;6.776;2023-09-07T06:10:53;6.03;;;4.18;;
10653;SDS011;5375;51.250;6.776;2023-09-07T06:13:19;8.88;;;4.53;;
10653;SDS011;5375;51.250;6.776;2023-09-07T06:15:45;6.82;;;4.07;;
10653;SDS011;5375;51.250;6.776;2023-09-07T06:18:11;5.80;;;4.35;;
10653;SDS011;5375;51.250;6.776;2023-09-07T06:20:37;4.82;;;3.63;;
10653;SDS011;5375;51.250;6.776;2023-09-07T06:23:03;4.95;;;3.90;;
10653;SDS011;5375;51.250;6.776;2023-09-07T06:25:29;5.70;;;3.67;;
10653;SDS011;5375;51.250;6.776;2023-09-07T06:27:56;6.82;;;4.20;;
10653;SDS011;5375;51.250;6.776;2023-09-07T06:30:22;5.40;;;4.10;;
10653;SDS011;5375;51.250;6.776;2023-09-07T06:32:48;6.03;;;3.80;;
10653;SDS011;5375;51.250;6.776;2023-09-07T06:35:16;6.57;;;4.07;;
10653;SDS011;5375;51.250;6.776;2023-09-07T06:37:43;4.05;;;3.50;;
10653;SDS011;5375;51.250;6.776;2023-09-07T06:40:09;4.55;;;3.65;;
10653;SDS011;5375;51.250;6.776;2023-09-07T06:42:36;5.82;;;4.20;;
10653;SDS011;5375;51.250;6.776;2023-09-07T06:45:02;5.25;;;3.80;;
10653;SDS011;5375;51.250;6.776;2023-09-07T06:47:28;5.97;;;3.80;;
10653;SDS011;5375;51.250;6.776;2023-09-07T06:49:54;6.18;;;4.40;;
10653;SDS011;5375;51.250;6.776;2023-09-07T06:52:20;5.38;;;4.07;;
10653;SDS011;5375;51.250;6.776;2023-09-07T06:54:46;6.35;;;4.22;;
10653;SDS011;5375;51.250;6.776;2023-09-07T06:57:12;5.55;;;3.85;;
10653;SDS011;5375;51.250;6.776;2023-09-07T06:59:38;4.90;;;3.70;;
10653;SDS011;5375;51.250;6.776;2023-09-07T07:02:03;4.65;;;4.10;;
10653;SDS011;5375;51.250;6.776;2023-09-07T07:04:30;5.35;;;4.03;;
10653;SDS011;5375;51.250;6.776;2023-09-07T07:06:56;4.93;;;4.28;;
10653;SDS011;5375;51.250;6.776;2023-09-07T07:09:22;5.38;;;3.70;;
10653;SDS011;5375;51.250;6.776;2023-09-07T07:11:48;6.70;;;4.35;;
10653;SDS011;5375;51.250;6.776;2023-09-07T07:14:14;7.57;;;3.63;;
10653;SDS011;5375;51.250;6.776;2023-09-07T07:16:40;4.50;;;3.60;;
10653;SDS011;5375;51.250;6.776;2023-09-07T07:19:06;4.75;;;3.55;;
10653;SDS011;5375;51.250;6.776;2023-09-07T07:21:32;5.57;;;3.90;;
10653;SDS011;5375;51.250;6.776;2023-09-07T07:23:58;5.60;;;4.13;;
10653;SDS011;5375;51.250;6.776;2023-09-07T07:26:24;5.50;;;3.45;;
10653;SDS011;5375;51.250;6.776;2023-09-07T07:28:50;6.00;;;3.45;;
10653;SDS011;5375;51.250;6.776;2023-09-07T07:31:16;6.57;;;4.03;;
10653;SDS011;5375;51.250;6.776;2023-09-07T07:33:42;8.43;;;3.67;;
10653;SDS011;5375;51.250;6.776;2023-09-07T07:36:08;10.27;;;4.47;;
10653;SDS011;5375;51.250;6.776;2023-09-07T07:38:34;5.32;;;4.05;;
10653;SDS011;5375;51.250;6.776;2023-09-07T07:41:01;7.40;;;3.63;;
10653;SDS011;5375;51.250;6.776;2023-09-07T07:43:28;6.05;;;3.50;;
10653;SDS011;5375;51.250;6.776;2023-09-07T07:45:55;10.80;;;3.97;;
10653;SDS011;5375;51.250;6.776;2023-09-07T07:48:21;7.65;;;3.72;;
10653;SDS011;5375;51.250;6.776;2023-09-07T07:50:47;4.38;;;3.35;;
10653;SDS011;5375;51.250;6.776;2023-09-07T07:53:13;8.30;;;3.33;;
10653;SDS011;5375;51.250;6.776;2023-09-07T07:55:39;8.27;;;3.30;;
10653;SDS011;5375;51.250;6.776;2023-09-07T07:58:06;4.80;;;3.30;;
10653;SDS011;5375;51.250;6.776;2023-09-07T08:00:38;4.72;;;3.40;;
10653;SDS011;5375;51.250;6.776;2023-09-07T08:03:06;6.30;;;3.50;;
10653;SDS011;5375;51.250;6.776;2023-09-07T08:05:32;5.43;;;3.25;;
10653;SDS011;5375;51.250;6.776;2023-09-07T08:07:58;4.50;;;3.38;;
10653;SDS011;5375;51.250;6.776;2023-09-07T08:10:25;4.88;;;3.60;;
10653;SDS011;5375;51.250;6.776;2023-09-07T08:12:53;3.72;;;3.10;;
10653;SDS011;5375;51.250;6.776;2023-09-07T08:15:19;6.60;;;3.50;;
10653;SDS011;5375;51.250;6.776;2023-09-07T08:17:47;4.43;;;3.15;;
10653;SDS011;5375;51.250;6.776;2023-09-07T08:20:13;4.38;;;3.08;;
10653;SDS011;5375;51.250;6.776;2023-09-07T08:22:40;5.53;;;3.42;;
10653;SDS011;5375;51.250;6.776;2023-09-07T08:25:10;4.05;;;3.00;;
10653;SDS011;5375;51.250;6.776;2023-09-07T08:27:38;3.42;;;2.88;;
10653;SDS011;5375;51.250;6.776;2023-09-07T08:30:04;5.05;;;3.42;;
10653;SDS011;5375;51.250;6.776;2023-09-07T08:32:31;3.72;;;3.20;;
10653;SDS011;5375;51.250;6.776;2023-09-07T08:34:57;5.55;;;3.75;;
10653;SDS011;5375;51.250;6.776;2023-09-07T08:37:26;6.43;;;3.33;;
10653;SDS011;5375;51.250;6.776;2023-09-07T08:39:54;5.15;;;3.13;;
10653;SDS011;5375;51.250;6.776;2023-09-07T08:42:20;4.28;;;3.08;;
10653;SDS011;5375;51.250;6.776;2023-09-07T08:44:46;6.18;;;3.17;;
10653;SDS011;5375;51.250;6.776;2023-09-07T08:47:15;6.28;;;3.45;;
10653;SDS011;5375;51.250;6.776;2023-09-07T08:49:42;8.85;;;3.47;;
10653;SDS011;5375;51.250;6.776;2023-09-07T08:52:10;6.63;;;3.33;;
10653;SDS011;5375;51.250;6.776;2023-09-07T08:54:37;4.50;;;3.17;;
10653;SDS011;5375;51.250;6.776;2023-09-07T08:57:03;3.40;;;2.85;;
10653;SDS011;5375;51.250;6.776;2023-09-07T08:59:29;4.03;;;2.70;;
10653;SDS011;5375;51.250;6.776;2023-09-07T09:01:56;4.60;;;3.20;;
10653;SDS011;5375;51.250;6.776;2023-09-07T09:04:23;3.30;;;3.00;;
10653;SDS011;5375;51.250;6.776;2023-09-07T09:06:49;6.35;;;3.20;;
10653;SDS011;5375;51.250;6.776;2023-09-07T09:09:23;3.22;;;2.78;;
10653;SDS011;5375;51.250;6.776;2023-09-07T09:11:49;4.53;;;3.17;;
10653;SDS011;5375;51.250;6.776;2023-09-07T09:14:18;3.88;;;2.88;;
10653;SDS011;5375;51.250;6.776;2023-09-07T09:16:49;4.05;;;2.88;;
10653;SDS011;5375;51.250;6.776;2023-09-07T09:19:15;5.15;;;3.28;;
10653;SDS011;5375;51.250;6.776;2023-09-07T09:21:42;4.10;;;2.95;;
10653;SDS011;5375;51.250;6.776;2023-09-07T09:24:10;6.85;;;3.00;;
10653;SDS011;5375;51.250;6.776;2023-09-07T09:26:36;5.13;;;2.88;;
10653;SDS011;5375;51.250;6.776;2023-09-07T09:29:02;4.05;;;3.10;;
10653;SDS011;5375;51.250;6.776;2023-09-07T09:31:29;4.00;;;3.30;;
10653;SDS011;5375;51.250;6.776;2023-09-07T09:33:55;2.90;;;2.60;;
10653;SDS011;5375;51.250;6.776;2023-09-07T09:36:21;3.20;;;2.90;;
10653;SDS011;5375;51.250;6.776;2023-09-07T09:38:48;4.45;;;2.85;;
10653;SDS011;5375;51.250;6.776;2023-09-07T09:41:15;3.10;;;2.55;;
10653;SDS011;5375;51.250;6.776;2023-09-07T09:43:42;3.22;;;2.70;;
10653;SDS011;5375;51.250;6.776;2023-09-07T09:46:09;4.32;;;2.92;;
10653;SDS011;5375;51.250;6.776;2023-09-07T09:48:35;4.90;;;2.95;;
10653;SDS011;5375;51.250;6.776;2023-09-07T09:51:01;5.57;;;3.20;;
10653;SDS011;5375;51.250;6.776;2023-09-07T09:53:29;3.92;;;2.85;;
10653;SDS011;5375;51.250;6.776;2023-09-07T09:55:55;4.45;;;3.13;;
10653;SDS011;5375;51.250;6.776;2023-09-07T09:58:21;5.90;;;3.08;;
10653;SDS011;5375;51.250;6.776;2023-09-07T10:00:51;4.57;;;2.83;;
10653;SDS011;5375;51.250;6.776;2023-09-07T10:05:48;2.85;;;2.53;;
10653;SDS011;5375;51.250;6.776;2023-09-07T10:08:15;3.10;;;2.58;;
10653;SDS011;5375;51.250;6.776;2023-09-07T10:10:43;3.47;;;2.70;;
10653;SDS011;5375;51.250;6.776;2023-09-07T10:13:09;3.10;;;2.80;;
10653;SDS011;5375;51.250;6.776;2023-09-07T10:15:35;4.18;;;2.80;;
10653;SDS011;5375;51.250;6.776;2023-09-07T10:18:11;3.67;;;2.80;;
10653;SDS011;5375;51.250;6.776;2023-09-07T10:23:13;4.10;;;2.88;;
10653;SDS011;5375;51.250;6.776;2023-09-07T10:25:40;2.47;;;2.25;;
10653;SDS011;5375;51.250;6.776;2023-09-07T10:28:17;4.30;;;2.95;;
10653;SDS011;5375;51.250;6.776;2023-09-07T10:30:43;2.90;;;2.60;;
10653;SDS011;5375;51.250;6.776;2023-09-07T10:33:19;3.75;;;2.65;;
10653;SDS011;5375;51.250;6.776;2023-09-07T10:35:45;3.10;;;2.80;;
10653;SDS011;5375;51.250;6.776;2023-09-07T10:38:13;2.85;;;2.55;;
10653;SDS011;5375;51.250;6.776;2023-09-07T10:40:39;3.45;;;2.58;;
10653;SDS011;5375;51.250;6.776;2023-09-07T10:43:05;3.40;;;2.90;;
10653;SDS011;5375;51.250;6.776;2023-09-07T10:45:33;3.60;;;2.60;;
10653;SDS011;5375;51.250;6.776;2023-09-07T10:47:59;2.67;;;2.47;;
10653;SDS011;5375;51.250;6.776;2023-09-07T10:50:25;2.95;;;2.40;;
10653;SDS011;5375;51.250;6.776;2023-09-07T10:52:51;3.80;;;2.50;;
10653;SDS011;5375;51.250;6.776;2023-09-07T10:55:18;3.42;;;2.70;;
10653;SDS011;5375;51.250;6.776;2023-09-07T10:57:44;3.95;;;2.63;;
10653;SDS011;5375;51.250;6.776;2023-09-07T11:00:11;3.88;;;2.65;;
10653;SDS011;5375;51.250;6.776;2023-09-07T11:02:40;6.22;;;2.80;;
10653;SDS011;5375;51.250;6.776;2023-09-07T11:05:07;3.75;;;2.58;;
10653;SDS011;5375;51.250;6.776;2023-09-07T11:07:33;3.17;;;2.72;;
10653;SDS011;5375;51.250;6.776;2023-09-07T11:10:00;2.83;;;2.28;;
10653;SDS011;5375;51.250;6.776;2023-09-07T11:12:29;3.97;;;2.83;;
10653;SDS011;5375;51.250;6.776;2023-09-07T11:14:56;3.85;;;2.70;;
10653;SDS011;5375;51.250;6.776;2023-09-07T11:17:28;3.30;;;2.80;;
10653;SDS011;5375;51.250;6.776;2023-09-07T11:19:54;4.55;;;2.80;;
10653;SDS011;5375;51.250;6.776;2023-09-07T11:22:20;3.88;;;2.88;;
10653;SDS011;5375;51.250;6.776;2023-09-07T11:24:47;4.63;;;2.60;;
10653;SDS011;5375;51.250;6.776;2023-09-07T11:27:13;3.35;;;2.65;;
10653;SDS011;5375;51.250;6.776;2023-09-07T11:29:39;3.28;;;2.45;;
10653;SDS011;5375;51.250;6.776;2023-09-07T11:32:08;3.17;;;2.70;;
10653;SDS011;5375;51.250;6.776;2023-09-07T11:34:35;2.83;;;2.33;;
10653;SDS011;5375;51.250;6.776;2023-09-07T11:37:04;4.20;;;2.70;;
10653;SDS011;5375;51.250;6.776;2023-09-07T11:39:30;3.03;;;2.38;;
10653;SDS011;5375;51.250;6.776;2023-09-07T11:41:56;3.20;;;2.50;;
10653;SDS011;5375;51.250;6.776;2023-09-07T11:44:22;3.42;;;2.63;;
10653;SDS011;5375;51.250;6.776;2023-09-07T11:46:48;3.03;;;2.72;;
10653;SDS011;5375;51.250;6.776;2023-09-07T11:49:14;4.78;;;2.65;;
10653;SDS011;5375;51.250;6.776;2023-09-07T11:51:45;2.85;;;2.45;;
10653;SDS011;5375;51.250;6.776;2023-09-07T11:54:11;3.13;;;2.60;;
10653;SDS011;5375;51.250;6.776;2023-09-07T11:56:36;3.60;;;2.78;;
10653;SDS011;5375;51.250;6.776;2023-09-07T11:59:07;3.40;;;2.60;;
10653;SDS011;5375;51.250;6.776;2023-09-07T12:01:34;3.03;;;2.70;;
10653;SDS011;5375;51.250;6.776;2023-09-07T12:04:00;2.80;;;2.40;;
10653;SDS011;5375;51.250;6.776;2023-09-07T12:06:28;4.00;;;2.65;;
10653;SDS011;5375;51.250;6.776;2023-09-07T12:09:01;5.97;;;2.50;;
10653;SDS011;5375;51.250;6.776;2023-09-07T12:11:28;4.80;;;2.47;;
10653;SDS011;5375;51.250;6.776;2023-09-07T12:13:54;2.65;;;2.40;;
10653;SDS011;5375;51.250;6.776;2023-09-07T12:16:20;3.72;;;2.30;;
10653;SDS011;5375;51.250;6.776;2023-09-07T12:18:46;2.90;;;2.45;;
10653;SDS011;5375;51.250;6.776;2023-09-07T12:21:12;5.53;;;2.50;;
10653;SDS011;5375;51.250;6.776;2023-09-07T12:23:38;2.78;;;2.58;;
10653;SDS011;5375;51.250;6.776;2023-09-07T12:26:04;4.10;;;2.80;;
10653;SDS011;5375;51.250;6.776;2023-09-07T12:28:30;2.72;;;2.40;;
10653;SDS011;5375;51.250;6.776;2023-09-07T12:30:56;3.03;;;2.40;;
10653;SDS011;5375;51.250;6.776;2023-09-07T12:33:23;2.78;;;2.40;;
10653;SDS011;5375;51.250;6.776;2023-09-07T12:35:49;3.47;;;2.30;;
10653;SDS011;5375;51.250;6.776;2023-09-07T12:38:16;3.28;;;2.40;;
10653;SDS011;5375;51.250;6.776;2023-09-07T12:40:47;3.58;;;2.40;;
10653;SDS011;5375;51.250;6.776;2023-09-07T12:43:14;3.63;;;2.88;;
10653;SDS011;5375;51.250;6.776;2023-09-07T12:45:40;2.90;;;2.45;;
10653;SDS011;5375;51.250;6.776;2023-09-07T12:48:06;4.93;;;2.65;;
10653;SDS011;5375;51.250;6.776;2023-09-07T12:50:33;3.30;;;2.45;;
10653;SDS011;5375;51.250;6.776;2023-09-07T12:52:58;2.88;;;2.17;;
10653;SDS011;5375;51.250;6.776;2023-09-07T12:55:24;2.50;;;2.30;;
10653;SDS011;5375;51.250;6.776;2023-09-07T12:57:50;3.85;;;2.33;;
10653;SDS011;5375;51.250;6.776;2023-09-07T13:00:16;2.53;;;2.33;;
10653;SDS011;5375;51.250;6.776;2023-09-07T13:02:43;2.67;;;2.47;;
10653;SDS011;5375;51.250;6.776;2023-09-07T13:05:09;5.30;;;2.30;;
10653;SDS011;5375;51.250;6.776;2023-09-07T13:07:35;4.13;;;2.55;;
10653;SDS011;5375;51.250;6.776;2023-09-07T13:10:01;4.03;;;2.63;;
10653;SDS011;5375;51.250;6.776;2023-09-07T13:12:29;2.80;;;2.05;;
10653;SDS011;5375;51.250;6.776;2023-09-07T13:14:55;2.97;;;2.20;;
10653;SDS011;5375;51.250;6.776;2023-09-07T13:17:21;4.97;;;2.35;;
10653;SDS011;5375;51.250;6.776;2023-09-07T13:19:47;2.83;;;2.22;;
10653;SDS011;5375;51.250;6.776;2023-09-07T13:22:13;3.58;;;2.28;;
10653;SDS011;5375;51.250;6.776;2023-09-07T13:24:39;2.97;;;2.40;;
10653;SDS011;5375;51.250;6.776;2023-09-07T13:27:05;2.88;;;2.20;;
10653;SDS011;5375;51.250;6.776;2023-09-07T13:29:32;2.50;;;2.30;;
10653;SDS011;5375;51.250;6.776;2023-09-07T13:31:58;2.72;;;2.15;;
10653;SDS011;5375;51.250;6.776;2023-09-07T13:34:24;3.53;;;2.35;;
10653;SDS011;5375;51.250;6.776;2023-09-07T13:36:51;2.70;;;2.40;;
10653;SDS011;5375;51.250;6.776;2023-09-07T13:39:17;3.05;;;2.40;;
10653;SDS011;5375;51.250;6.776;2023-09-07T13:41:43;2.65;;;2.22;;
10653;SDS011;5375;51.250;6.776;2023-09-07T13:44:09;2.55;;;2.10;;
10653;SDS011;5375;51.250;6.776;2023-09-07T13:46:34;2.85;;;2.40;;
10653;SDS011;5375;51.250;6.776;2023-09-07T13:49:00;2.42;;;2.22;;
10653;SDS011;5375;51.250;6.776;2023-09-07T13:51:26;4.32;;;2.50;;
10653;SDS011;5375;51.250;6.776;2023-09-07T13:53:52;2.83;;;2.17;;
10653;SDS011;5375;51.250;6.776;2023-09-07T13:56:18;2.90;;;2.60;;
10653;SDS011;5375;51.250;6.776;2023-09-07T13:58:44;2.45;;;2.20;;
10653;SDS011;5375;51.250;6.776;2023-09-07T14:01:11;2.70;;;2.30;;
10653;SDS011;5375;51.250;6.776;2023-09-07T14:03:37;2.40;;;2.08;;
10653;SDS011;5375;51.250;6.776;2023-09-07T14:06:03;3.25;;;2.20;;
10653;SDS011;5375;51.250;6.776;2023-09-07T14:08:29;3.25;;;2.28;;
10653;SDS011;5375;51.250;6.776;2023-09-07T14:10:58;2.45;;;2.13;;
10653;SDS011;5375;51.250;6.776;2023-09-07T14:13:24;2.00;;;1.80;;
10653;SDS011;5375;51.250;6.776;2023-09-07T14:15:50;4.00;;;2.00;;
10653;SDS011;5375;51.250;6.776;2023-09-07T14:18:16;2.50;;;2.22;;
10653;SDS011;5375;51.250;6.776;2023-09-07T14:20:42;2.70;;;2.08;;
10653;SDS011;5375;51.250;6.776;2023-09-07T14:23:08;2.97;;;2.33;;
10653;SDS011;5375;51.250;6.776;2023-09-07T14:25:34;3.45;;;2.13;;
10653;SDS011;5375;51.250;6.776;2023-09-07T14:28:00;2.45;;;2.25;;
10653;SDS011;5375;51.250;6.776;2023-09-07T14:30:26;2.22;;;1.95;;
10653;SDS011;5375;51.250;6.776;2023-09-07T14:32:52;2.15;;;1.95;;
10653;SDS011;5375;51.250;6.776;2023-09-07T14:35:18;2.47;;;2.00;;
10653;SDS011;5375;51.250;6.776;2023-09-07T14:37:44;2.30;;;2.10;;
10653;SDS011;5375;51.250;6.776;2023-09-07T14:40:10;3.10;;;2.22;;
10653;SDS011;5375;51.250;6.776;2023-09-07T14:42:37;2.20;;;2.00;;
10653;SDS011;5375;51.250;6.776;2023-09-07T14:45:03;2.83;;;1.92;;
10653;SDS011;5375;51.250;6.776;2023-09-07T14:47:30;2.20;;;2.00;;
10653;SDS011;5375;51.250;6.776;2023-09-07T14:49:56;2.20;;;2.00;;
10653;SDS011;5375;51.250;6.776;2023-09-07T14:52:22;2.53;;;2.25;;
10653;SDS011;5375;51.250;6.776;2023-09-07T14:54:49;2.30;;;2.10;;
10653;SDS011;5375;51.250;6.776;2023-09-07T14:57:15;3.20;;;2.08;;
10653;SDS011;5375;51.250;6.776;2023-09-07T14:59:41;2.47;;;1.95;;
10653;SDS011;5375;51.250;6.776;2023-09-07T15:02:07;2.30;;;2.10;;